Fort Benning, GA

7:42 PM EDT en Septiembre 02, 2014 (GMT -0400)
Columbus Metro | Change Station
CLOSE
Current Station
Aeropuerto
Location: Columbus,
Altura: 397 ft
Estaciones meteorológicas cercanas

Alt 397 ft 32.52 °N, 84.94 °W | Updated 51 minutes ago

Clear
Despejado
93 ° F
Sensación térmica 95 ° F
N
9
Viento Variable Viento desde Oeste

Hoy
Alta -- | Baja -- ° F
--% Posibilidad de precipitaciones
Ayer
Alta -- | Baja -- ° F
Precip. -- pul
7:15 AM 8:02 PM
Cuarto creciente, 56% visible
Presión 29.93 pul
Visibilidad 10.0 Millas
Nubes Despejado
Índice de calor 95 ° F
Punto de rocío 65 ° F
Humedad 39%
Precipitaciones 0.00 pul
Espesor de la nieve No disponible.
UV 1 de una escala de 12
Polen 9.20 de una escala de 12
Ozono Buena
PM2.5 Buena
Flu Activity No disponible.
METAR KCSG 022251Z 27008KT 10SM CLR 34/18 A2995 RMK AO2 SLP135 T03390183

More Conditions Fewer Conditions

Presión 29.93 pul
Visibilidad 10.0 Millas
Nubes Despejado
Índice de calor 95 ° F
Punto de rocío 65 ° F
Humedad 39%
Precipitaciones 0.00 pul
Espesor de la nieve No disponible.
UV 1 de una escala de 12
Polen 9.20 de una escala de 12
Ozono Buena
PM2.5 Buena
Flu Activity No disponible.
METAR KCSG 022251Z 27008KT 10SM CLR 34/18 A2995 RMK AO2 SLP135 T03390183

More Conditions Fewer Conditions

10-Day Weather Forecast

Almanac

Astronomía

Sep. 02, 2014 Salida Puesta
Hora real 7:15 AM EDT 8:02 PM EDT
Crepúsculo civil 6:50 AM EDT 8:27 PM EDT
Crepúsculo náutico 6:20 AM EDT 8:57 PM EDT
Crepúsculo astronómico 5:50 AM EDT 9:27 PM EDT
Luna 2:35 PM EDT 12:27 AM EDT
Horas de luz 13h 37m
Horas de luz
12h 47m
Tomorrow will be 1m 55s shorter.
Cuarto creciente, 56% of the Moon is Illuminated
Hoy
Cuarto creciente
Sep 8
Luna llena
Sep 15
Cuarto menguante
Sep 24
Nueva
Oct 1
Cuarto creciente

Extremos de hoy

Máximos del estado Bajos del estado

Community

WunderPhotos

Upload Photos

1,749,799 ¡fotos cargadas!

Nearby

Calidad del aire

  Calidad del aire Índice AQ Contaminante
Real Buena
PM2.5
Real Buena
OZONE
Martes Buena
PM2.5
Miércoles Moderada
PM2.5

Grosos de nieve

Estación Profundido Altura
No tenemos constancia de nieve nueva.

Actividad de terremotos

Ciudad Distance Mag. Tiempo y dato
No hay informes recientes de la actividad sísmica.
Magnitud mínima muestra es 2,5.

Temperaturas de aguas costeras

Lugar Temperatura
Sin partes meteorológicos de las estaciones

Estaciones meteorológicas cercanas